Terminal Aerodrome Forecast
Issued by NWS Sterling, VA

Current Version | Previous Version | Graphics & Text | Print | Product List | Glossary On
Versions: 1 2 3 4 5 6 7 8 9 10 11 12 13 14 15 16
000
FTUS41 KLWX 181700
TAFMRB
TAF
KMRB 181733Z 1818/1918 15006KT P6SM BKN050
     FM190300 VRB03KT P6SM BKN015 OVC050
     FM190400 VRB03KT 3SM BR BKN015 BKN050
     FM190600 VRB03KT 2SM BR BKN008
     FM191200 03004KT P6SM BKN008
     FM191400 05005KT P6SM BKN015 BKN050=

USA.gov is the U.S. government's official web portal to all federal, state and local government web resources and services.